FVMB weather

Mashumbi Airport
Mashumbi, Mashonaland Central Province, Zimbabwe

Public forecast

Using degrees Celsius for public forecast. Weather courtesy of forecast.io.

METAR (pilot weather report)

Report is more than 6 hours old.

Closest report is Kariba International Airport, 99.2 nm (183.7 km) WSW. Retrieved 2019/05/21 15:00 UTC (1 day ago):

FVKB 211500Z 28003KT CAVOK 27/20 Q1014

TAF (pilot weather forecast)

Forecast is more than 12 hours old.

Closest forecast is Jeki Airport, 64.2 nm (118.9 km) WNW. Retrieved 2019/05/18 06:00 UTC (5 days ago):

TAF FLJK 180400Z 1806/1912 10010KT CAVOK BECMG 1808/1810 SCT040 BECMG 1816/1818 VRB03KT BECMG 1905/1007 08010KT